createdAt,value
2023-03-20T00:00:17.417Z,25.3749
2023-03-20T00:01:19.071Z,25.3654
2023-03-20T00:02:20.724Z,25.3697
2023-03-20T00:03:22.393Z,25.3802
2023-03-20T00:04:24.050Z,25.3845
2023-03-20T00:05:25.648Z,25.3890
2023-03-20T00:06:27.302Z,25.3946
2023-03-20T00:07:28.978Z,25.3835
2023-03-20T00:08:30.605Z,25.3880
2023-03-20T00:09:32.247Z,25.3870
2023-03-20T00:10:33.901Z,25.3971
2023-03-20T00:11:35.559Z,25.3983
2023-03-20T00:12:37.224Z,25.4038
2023-03-20T00:13:38.848Z,25.4047
2023-03-20T00:14:41.489Z,25.3948
2023-03-20T00:15:42.216Z,25.4051
2023-03-20T00:16:43.848Z,25.4160
2023-03-20T00:17:45.491Z,25.4047
2023-03-20T00:18:47.100Z,25.4123
2023-03-20T00:19:48.809Z,25.4217
2023-03-20T00:20:50.432Z,25.4287
2023-03-20T00:21:52.061Z,25.4229
2023-03-20T00:22:53.755Z,25.4275
2023-03-20T00:23:55.358Z,25.4307
2023-03-20T00:24:57.025Z,25.4310
2023-03-20T00:25:58.672Z,25.4310
2023-03-20T00:27:00.302Z,25.4340
2023-03-20T00:28:01.968Z,25.4277
2023-03-20T00:29:03.605Z,25.4340
2023-03-20T00:30:05.262Z,25.4445
2023-03-20T00:31:06.922Z,25.4375
2023-03-20T00:32:08.519Z,25.4498
2023-03-20T00:33:10.228Z,25.4529
2023-03-20T00:34:11.816Z,25.4466
2023-03-20T00:35:13.465Z,25.4507
2023-03-20T00:36:15.175Z,25.4498
2023-03-20T00:37:16.792Z,25.4548
2023-03-20T00:38:18.451Z,25.4474
2023-03-20T00:39:20.102Z,25.4558
2023-03-20T00:40:21.740Z,25.4581
2023-03-20T00:41:23.391Z,25.4509
2023-03-20T00:42:25.061Z,25.4418
2023-03-20T00:43:26.706Z,25.4560
2023-03-20T00:44:28.323Z,25.4622
2023-03-20T00:45:29.947Z,25.4706
2023-03-20T00:46:31.599Z,25.4663
2023-03-20T00:47:33.241Z,25.4716
2023-03-20T00:48:34.946Z,25.4642
2023-03-20T00:49:36.568Z,25.4800
2023-03-20T00:50:38.199Z,25.4632
2023-03-20T00:51:39.841Z,25.4737
2023-03-20T00:52:41.512Z,25.4868
2023-03-20T00:53:43.151Z,25.4893
2023-03-20T00:54:44.786Z,25.4938
2023-03-20T00:55:46.446Z,25.4936
2023-03-20T00:56:48.080Z,25.5028
2023-03-20T00:57:49.731Z,25.5024
2023-03-20T00:58:51.400Z,25.5004
2023-03-20T00:59:53.057Z,25.4994
2023-03-20T01:00:54.721Z,25.4969
2023-03-20T01:01:56.345Z,25.5004
2023-03-20T01:02:58.003Z,25.5080
2023-03-20T01:03:59.675Z,25.5006
2023-03-20T01:05:01.360Z,25.5078
2023-03-20T01:06:02.947Z,25.5047
2023-03-20T01:07:04.595Z,25.5109
2023-03-20T01:08:06.241Z,25.5152
2023-03-20T01:09:07.904Z,25.5234
2023-03-20T01:10:09.535Z,25.5224
2023-03-20T01:11:11.319Z,25.5226
2023-03-20T01:12:12.828Z,25.5213
2023-03-20T01:13:14.462Z,25.5326
2023-03-20T01:14:16.143Z,25.5174
2023-03-20T01:15:17.788Z,25.5316
2023-03-20T01:16:19.479Z,25.5421
2023-03-20T01:17:21.254Z,25.5478
2023-03-20T01:18:22.744Z,25.5470
2023-03-20T01:19:24.411Z,25.5565
2023-03-20T01:20:26.008Z,25.5445
2023-03-20T01:21:27.642Z,25.5528
2023-03-20T01:22:29.287Z,25.5624
2023-03-20T01:23:30.930Z,25.5575
2023-03-20T01:24:32.600Z,25.5565
2023-03-20T01:25:34.553Z,25.5431
2023-03-20T01:26:35.920Z,25.5552
2023-03-20T01:27:37.528Z,25.5702
2023-03-20T01:28:39.184Z,25.5694
2023-03-20T01:29:40.878Z,25.5873
2023-03-20T01:30:42.504Z,25.5774
2023-03-20T01:31:44.164Z,25.5758
2023-03-20T01:32:45.794Z,25.5610
2023-03-20T01:33:47.427Z,25.5608
2023-03-20T01:34:49.115Z,25.5840
2023-03-20T01:35:50.809Z,25.5963
2023-03-20T01:36:52.395Z,25.5965
2023-03-20T01:37:54.121Z,25.5949
2023-03-20T01:38:55.793Z,25.6072
2023-03-20T01:39:57.441Z,25.5940
2023-03-20T01:40:59.064Z,25.6033
2023-03-20T01:42:00.714Z,25.6031
2023-03-20T01:43:02.373Z,25.5963
2023-03-20T01:44:04.015Z,25.5986
2023-03-20T01:45:05.697Z,25.6125
2023-03-20T01:46:07.316Z,25.6187
2023-03-20T01:47:08.941Z,25.5988
2023-03-20T01:48:10.586Z,25.6275
2023-03-20T01:49:12.233Z,25.6355
2023-03-20T01:50:13.945Z,25.6433
2023-03-20T01:51:15.549Z,25.6290
2023-03-20T01:52:17.215Z,25.6269
2023-03-20T01:53:18.859Z,25.6333
2023-03-20T01:54:20.528Z,25.6390
2023-03-20T01:55:22.204Z,25.6643
2023-03-20T01:56:23.837Z,25.6571
2023-03-20T01:57:25.464Z,25.6413
2023-03-20T01:58:27.117Z,25.6503
2023-03-20T01:59:28.768Z,25.6577
2023-03-20T02:00:30.440Z,25.6686
2023-03-20T02:01:32.143Z,25.6696
2023-03-20T02:02:33.723Z,25.6696
2023-03-20T02:03:35.351Z,25.6725
2023-03-20T02:04:37.059Z,25.6645
2023-03-20T02:05:38.715Z,25.6468
2023-03-20T02:06:40.343Z,25.6737
2023-03-20T02:07:41.976Z,25.6768
2023-03-20T02:08:43.613Z,25.6717
2023-03-20T02:09:45.246Z,25.6896
2023-03-20T02:10:46.924Z,25.6961
2023-03-20T02:11:48.542Z,25.6941
2023-03-20T02:12:50.203Z,25.7052
2023-03-20T02:13:51.874Z,25.6916
2023-03-20T02:14:53.508Z,25.6840
2023-03-20T02:15:55.172Z,25.6832
2023-03-20T02:16:56.833Z,25.6994
2023-03-20T02:17:58.448Z,25.7093
2023-03-20T02:19:00.128Z,25.7052
2023-03-20T02:20:01.757Z,25.7280
2023-03-20T02:21:03.420Z,25.7323
2023-03-20T02:22:05.047Z,25.7288
2023-03-20T02:23:06.736Z,25.7335
2023-03-20T02:24:08.374Z,25.7343
2023-03-20T02:25:10.047Z,25.7039
2023-03-20T02:26:11.704Z,25.7109
2023-03-20T02:27:13.326Z,25.7126
2023-03-20T02:28:14.963Z,25.7115
2023-03-20T02:29:16.610Z,25.7193
2023-03-20T02:30:18.288Z,25.7555
2023-03-20T02:31:19.947Z,25.7354
2023-03-20T02:32:21.553Z,25.7510
2023-03-20T02:33:23.208Z,25.7512
2023-03-20T02:34:24.852Z,25.7335
2023-03-20T02:35:26.507Z,25.7212
2023-03-20T02:36:28.174Z,25.7257
2023-03-20T02:37:29.785Z,25.7514
2023-03-20T02:38:31.456Z,25.7436
2023-03-20T02:39:33.110Z,25.7424
2023-03-20T02:40:34.765Z,25.7226
2023-03-20T02:41:36.467Z,25.7185
2023-03-20T02:42:38.015Z,25.7500
2023-03-20T02:43:39.696Z,25.7682
2023-03-20T02:44:41.319Z,25.7715
2023-03-20T02:45:42.992Z,25.7674
2023-03-20T02:46:44.653Z,25.7590
2023-03-20T02:47:46.277Z,25.7467
2023-03-20T02:48:47.926Z,25.7565
2023-03-20T02:49:49.620Z,25.7639
2023-03-20T02:50:51.313Z,25.7777
2023-03-20T02:51:52.963Z,25.7738
2023-03-20T02:52:54.658Z,25.7726
2023-03-20T02:53:56.215Z,25.7728
2023-03-20T02:54:57.854Z,25.7843
2023-03-20T02:55:59.507Z,25.7797
2023-03-20T02:57:01.182Z,25.7767
2023-03-20T02:58:02.797Z,25.7943
2023-03-20T02:59:04.440Z,25.7970
2023-03-20T03:00:06.109Z,25.7787
2023-03-20T03:01:07.795Z,25.7664
2023-03-20T03:02:09.459Z,25.7787
2023-03-20T03:03:11.096Z,25.7935
2023-03-20T03:04:12.709Z,25.8019
2023-03-20T03:05:14.354Z,25.7986
2023-03-20T03:06:16.011Z,25.7964
2023-03-20T03:07:17.685Z,25.7939
2023-03-20T03:08:19.301Z,25.7880
2023-03-20T03:09:20.978Z,25.7843
2023-03-20T03:10:22.620Z,25.7919
2023-03-20T03:11:24.248Z,25.7789
2023-03-20T03:12:25.929Z,25.7767
2023-03-20T03:13:27.554Z,25.7838
2023-03-20T03:14:29.223Z,25.7828
2023-03-20T03:15:30.879Z,25.7863
2023-03-20T03:16:32.517Z,25.7863
2023-03-20T03:17:34.190Z,25.7937
2023-03-20T03:18:35.829Z,25.7927
2023-03-20T03:19:37.462Z,25.7838
2023-03-20T03:20:39.089Z,25.7867
2023-03-20T03:21:40.735Z,25.7705
2023-03-20T03:22:42.427Z,25.7828
2023-03-20T03:23:44.074Z,25.7908
2023-03-20T03:24:45.706Z,25.7797
2023-03-20T03:25:47.360Z,25.7902
2023-03-20T03:26:49.010Z,25.7939
2023-03-20T03:27:50.668Z,25.7728
2023-03-20T03:28:52.308Z,25.7937
2023-03-20T03:29:54.041Z,25.7863
2023-03-20T03:30:55.589Z,25.7746
2023-03-20T03:31:57.220Z,25.7717
2023-03-20T03:32:58.977Z,25.7841
2023-03-20T03:34:00.551Z,25.7929
2023-03-20T03:35:02.176Z,25.7896
2023-03-20T03:36:03.881Z,25.7927
2023-03-20T03:37:05.465Z,25.7678
2023-03-20T03:38:07.124Z,25.7432
2023-03-20T03:39:08.762Z,25.7726
2023-03-20T03:40:10.873Z,25.7851
2023-03-20T03:41:12.061Z,25.7853
2023-03-20T03:42:13.706Z,25.7841
2023-03-20T03:43:15.369Z,25.7787
2023-03-20T03:44:16.995Z,25.7738
2023-03-20T03:45:18.660Z,25.7378
2023-03-20T03:46:20.301Z,25.7619
2023-03-20T03:47:21.960Z,25.7664
2023-03-20T03:48:23.598Z,25.7715
2023-03-20T03:49:25.256Z,25.7841
2023-03-20T03:50:26.909Z,25.7828
2023-03-20T03:51:28.563Z,25.7703
2023-03-20T03:52:30.222Z,25.7534
2023-03-20T03:53:31.910Z,25.7444
2023-03-20T03:54:33.505Z,25.7621
2023-03-20T03:55:35.461Z,25.7705
2023-03-20T03:56:36.764Z,25.7512
2023-03-20T03:57:38.413Z,25.7569
2023-03-20T03:58:40.094Z,25.7777
2023-03-20T03:59:41.740Z,25.7695
2023-03-20T04:00:43.395Z,25.7682
2023-03-20T04:01:45.039Z,25.7600
2023-03-20T04:02:46.670Z,25.7674
2023-03-20T04:03:48.352Z,25.7672
2023-03-20T04:04:50.048Z,25.7573
2023-03-20T04:05:51.652Z,25.7467
2023-03-20T04:06:53.282Z,25.7454
2023-03-20T04:07:54.919Z,25.7409
2023-03-20T04:08:56.591Z,25.7504
2023-03-20T04:09:58.228Z,25.7487
2023-03-20T04:10:59.877Z,25.7469
2023-03-20T04:12:01.530Z,25.7528
2023-03-20T04:13:03.170Z,25.7578
2023-03-20T04:14:04.852Z,25.7563
2023-03-20T04:15:06.463Z,25.7502
2023-03-20T04:16:08.125Z,25.7389
2023-03-20T04:17:09.778Z,25.7397
2023-03-20T04:18:11.380Z,25.7567
2023-03-20T04:19:13.057Z,25.7421
2023-03-20T04:20:14.688Z,25.7421
2023-03-20T04:21:16.336Z,25.7434
2023-03-20T04:22:17.974Z,25.7487
2023-03-20T04:23:19.626Z,25.7547
2023-03-20T04:24:21.281Z,25.7608
2023-03-20T04:25:22.942Z,25.7421
2023-03-20T04:26:24.566Z,25.7481
2023-03-20T04:27:26.212Z,25.7684
2023-03-20T04:28:27.888Z,25.7442
2023-03-20T04:29:29.540Z,25.7590
2023-03-20T04:30:31.209Z,25.7510
2023-03-20T04:31:32.923Z,25.7590
2023-03-20T04:32:34.487Z,25.7684
2023-03-20T04:33:36.134Z,25.7524
2023-03-20T04:34:37.773Z,25.7613
2023-03-20T04:35:39.678Z,25.7726
2023-03-20T04:36:41.092Z,25.7664
2023-03-20T04:37:42.748Z,25.7705
2023-03-20T04:38:44.391Z,25.7557
2023-03-20T04:39:46.069Z,25.7693
2023-03-20T04:40:47.697Z,25.7555
2023-03-20T04:41:49.365Z,25.7530
2023-03-20T04:42:50.993Z,25.7610
2023-03-20T04:43:52.642Z,25.7726
2023-03-20T04:44:54.277Z,25.7797
2023-03-20T04:45:55.948Z,25.7875
2023-03-20T04:46:57.590Z,25.7695
2023-03-20T04:47:59.235Z,25.7670
2023-03-20T04:49:00.888Z,25.7631
2023-03-20T04:50:02.567Z,25.7565
2023-03-20T04:51:04.183Z,25.7691
2023-03-20T04:52:05.836Z,25.7736
2023-03-20T04:53:07.460Z,25.7756
2023-03-20T04:54:09.108Z,25.7863
2023-03-20T04:55:10.816Z,25.7765
2023-03-20T04:56:12.413Z,25.7865
2023-03-20T04:57:14.076Z,25.7726
2023-03-20T04:58:15.712Z,25.7828
2023-03-20T04:59:17.361Z,25.7808
2023-03-20T05:00:19.053Z,25.7947
2023-03-20T05:01:20.733Z,25.7884
2023-03-20T05:02:22.369Z,25.7892
2023-03-20T05:03:24.310Z,25.7789
2023-03-20T05:04:25.724Z,25.8073
2023-03-20T05:05:27.314Z,25.7995
2023-03-20T05:06:28.948Z,25.7871
2023-03-20T05:07:30.593Z,25.7962
2023-03-20T05:08:32.258Z,25.8159
2023-03-20T05:09:33.886Z,25.8233
2023-03-20T05:10:35.558Z,25.8223
2023-03-20T05:11:37.161Z,25.8258
2023-03-20T05:12:38.820Z,25.8350
2023-03-20T05:13:40.479Z,25.8397
2023-03-20T05:14:42.121Z,25.8323
2023-03-20T05:15:43.786Z,25.8317
2023-03-20T05:16:46.225Z,25.8389
2023-03-20T05:17:47.252Z,25.8192
2023-03-20T05:18:48.714Z,25.8118
2023-03-20T05:19:50.362Z,25.8058
2023-03-20T05:20:52.068Z,25.8173
2023-03-20T05:21:53.658Z,25.8397
2023-03-20T05:22:55.320Z,25.8410
2023-03-20T05:23:56.967Z,25.8500
2023-03-20T05:24:58.620Z,25.8366
2023-03-20T05:26:00.319Z,25.8512
2023-03-20T05:27:01.933Z,25.8424
2023-03-20T05:28:03.578Z,25.8477
2023-03-20T05:29:05.222Z,25.8477
2023-03-20T05:30:06.881Z,25.8525
2023-03-20T05:31:08.626Z,25.8442
2023-03-20T05:32:10.189Z,25.8568
2023-03-20T05:33:11.911Z,25.8609
2023-03-20T05:34:13.548Z,25.8640
2023-03-20T05:35:15.136Z,25.8543
2023-03-20T05:36:16.831Z,25.8535
2023-03-20T05:37:18.449Z,25.8564
2023-03-20T05:38:20.096Z,25.8693
2023-03-20T05:39:21.743Z,25.8798
2023-03-20T05:40:23.392Z,25.8892
2023-03-20T05:41:25.154Z,25.8892
2023-03-20T05:42:26.742Z,25.8894
2023-03-20T05:43:28.405Z,25.8767
2023-03-20T05:44:30.030Z,25.8787
2023-03-20T05:45:31.677Z,25.8746
2023-03-20T05:46:33.449Z,25.8607
2023-03-20T05:47:34.977Z,25.8744
2023-03-20T05:48:36.667Z,25.8683
2023-03-20T05:49:38.310Z,25.8909
2023-03-20T05:50:39.920Z,25.8937
2023-03-20T05:51:41.605Z,25.9122
2023-03-20T05:52:43.225Z,25.9040
2023-03-20T05:53:44.895Z,25.9104
2023-03-20T05:54:46.535Z,25.9180
2023-03-20T05:55:48.185Z,25.9293
2023-03-20T05:56:49.989Z,25.9192
2023-03-20T05:57:51.487Z,25.9274
2023-03-20T05:58:53.172Z,25.9336
2023-03-20T05:59:54.829Z,25.9474
2023-03-20T06:00:56.464Z,25.9576
2023-03-20T06:01:58.141Z,25.9591
2023-03-20T06:02:59.848Z,25.9607
2023-03-20T06:04:01.430Z,25.9753
2023-03-20T06:05:03.063Z,25.9510
2023-03-20T06:06:04.741Z,25.9465
2023-03-20T06:07:06.369Z,25.9510
2023-03-20T06:08:08.075Z,25.9574
2023-03-20T06:09:09.655Z,25.9763
2023-03-20T06:10:11.297Z,25.9925
2023-03-20T06:11:12.929Z,25.9695
2023-03-20T06:12:14.608Z,25.9646
2023-03-20T06:13:16.251Z,25.8863
2023-03-20T06:14:17.908Z,25.9282
2023-03-20T06:15:19.543Z,25.9198
2023-03-20T06:16:21.298Z,25.9128
2023-03-20T06:17:22.865Z,25.8921
2023-03-20T06:18:24.491Z,25.8866
2023-03-20T06:19:26.149Z,25.9287
2023-03-20T06:20:27.794Z,25.9443
2023-03-20T06:21:29.413Z,25.9611
2023-03-20T06:22:31.093Z,25.9599
2023-03-20T06:23:32.774Z,25.9677
2023-03-20T06:24:34.542Z,25.9794
2023-03-20T06:25:36.348Z,25.9804
2023-03-20T06:26:37.713Z,25.9993
2023-03-20T06:27:39.383Z,25.9950
2023-03-20T06:28:41.051Z,26.0049
2023-03-20T06:29:42.673Z,26.0137
2023-03-20T06:30:44.331Z,26.0071
2023-03-20T06:31:45.966Z,26.0135
2023-03-20T06:32:47.686Z,26.0190
2023-03-20T06:33:49.259Z,26.0242
2023-03-20T06:34:50.905Z,26.0336
2023-03-20T06:35:52.628Z,26.0390
2023-03-20T06:36:54.246Z,26.0346
2023-03-20T06:37:55.869Z,26.0295
2023-03-20T06:38:57.530Z,26.0410
2023-03-20T06:39:59.159Z,26.0599
2023-03-20T06:41:00.876Z,26.0620
2023-03-20T06:42:02.481Z,26.0599
2023-03-20T06:43:04.574Z,26.0476
2023-03-20T06:44:06.084Z,26.0595
2023-03-20T06:45:07.624Z,26.0634
2023-03-20T06:46:09.263Z,26.0675
2023-03-20T06:47:10.954Z,26.0729
2023-03-20T06:48:12.498Z,26.0718
2023-03-20T06:49:14.063Z,26.0749
2023-03-20T06:50:15.770Z,26.0562
2023-03-20T06:51:17.696Z,26.0429
2023-03-20T06:52:19.111Z,26.0589
2023-03-20T06:53:20.684Z,26.0394
2023-03-20T06:54:22.318Z,26.0790
2023-03-20T06:55:24.262Z,26.0192
